Cape Town, South Africa
Current Conditions -  °F | °C
As of 1:00 AM on Sunday 26 Oct 2014 (Local Time) from FACT Reporting Station
Clear Clear  
Wind Chill: 63°   Ceiling: Unl
Heat Index: 63°   Visibility: 6mi
Dew Point: 50°   Wind: 7mph
Humidity: 63%   Direction: 210°SSW
Pressure: 30"   Gusts: NA
Location:  33.93°S, 18.46°E
Report Text: FACT 252300Z 21006KT CAVOK 17/10 Q1016 NOSIG
Loading
Personal Weather Stations






























Interactive Weather Map
Tropical Storm Tracking
New forecast layout! Learn more

10-Day Weather Forecast

Advertisements
Track Severe Weather on mobile